sensor_id;sensor_type;location;lat;lon;timestamp;P1;durP1;ratioP1;P2;durP2;ratioP2
40867;SDS011;26586;50.708;22.412;2023-03-01T00:02:27;132.40;;;62.70;;
40867;SDS011;26586;50.708;22.412;2023-03-01T00:04:53;115.78;;;60.75;;
40867;SDS011;26586;50.708;22.412;2023-03-01T00:07:19;121.15;;;57.92;;
40867;SDS011;26586;50.708;22.412;2023-03-01T00:09:45;108.95;;;54.70;;
40867;SDS011;26586;50.708;22.412;2023-03-01T00:12:12;94.67;;;48.33;;
40867;SDS011;26586;50.708;22.412;2023-03-01T00:14:38;93.50;;;47.17;;
40867;SDS011;26586;50.708;22.412;2023-03-01T00:17:07;91.97;;;48.80;;
40867;SDS011;26586;50.708;22.412;2023-03-01T00:19:33;136.20;;;72.97;;
40867;SDS011;26586;50.708;22.412;2023-03-01T00:22:00;124.55;;;60.38;;
40867;SDS011;26586;50.708;22.412;2023-03-01T00:24:26;108.70;;;55.47;;
40867;SDS011;26586;50.708;22.412;2023-03-01T00:26:53;97.43;;;49.35;;
40867;SDS011;26586;50.708;22.412;2023-03-01T00:29:21;83.55;;;43.83;;
40867;SDS011;26586;50.708;22.412;2023-03-01T00:31:49;88.10;;;46.45;;
40867;SDS011;26586;50.708;22.412;2023-03-01T00:34:15;88.13;;;46.20;;
40867;SDS011;26586;50.708;22.412;2023-03-01T00:36:42;92.35;;;47.55;;
40867;SDS011;26586;50.708;22.412;2023-03-01T00:39:10;87.38;;;46.70;;
40867;SDS011;26586;50.708;22.412;2023-03-01T00:41:39;93.90;;;47.70;;
40867;SDS011;26586;50.708;22.412;2023-03-01T00:44:05;96.40;;;48.58;;
40867;SDS011;26586;50.708;22.412;2023-03-01T00:46:32;86.97;;;44.77;;
40867;SDS011;26586;50.708;22.412;2023-03-01T00:48:59;107.05;;;51.13;;
40867;SDS011;26586;50.708;22.412;2023-03-01T00:51:28;141.73;;;59.63;;
40867;SDS011;26586;50.708;22.412;2023-03-01T00:53:56;137.50;;;64.43;;
40867;SDS011;26586;50.708;22.412;2023-03-01T00:56:24;154.75;;;67.35;;
40867;SDS011;26586;50.708;22.412;2023-03-01T00:58:50;151.73;;;71.50;;
40867;SDS011;26586;50.708;22.412;2023-03-01T01:01:18;121.47;;;58.80;;
40867;SDS011;26586;50.708;22.412;2023-03-01T01:03:53;101.63;;;51.92;;
40867;SDS011;26586;50.708;22.412;2023-03-01T01:06:22;101.78;;;50.75;;
40867;SDS011;26586;50.708;22.412;2023-03-01T01:08:50;95.18;;;49.80;;
40867;SDS011;26586;50.708;22.412;2023-03-01T01:11:18;106.78;;;51.83;;
40867;SDS011;26586;50.708;22.412;2023-03-01T01:13:45;108.45;;;52.05;;
40867;SDS011;26586;50.708;22.412;2023-03-01T01:16:12;107.47;;;52.53;;
40867;SDS011;26586;50.708;22.412;2023-03-01T01:21:07;116.47;;;57.67;;
40867;SDS011;26586;50.708;22.412;2023-03-01T01:23:35;113.68;;;54.55;;
40867;SDS011;26586;50.708;22.412;2023-03-01T01:26:13;118.28;;;55.72;;
40867;SDS011;26586;50.708;22.412;2023-03-01T01:28:41;120.95;;;57.22;;
40867;SDS011;26586;50.708;22.412;2023-03-01T01:31:08;121.75;;;57.03;;
40867;SDS011;26586;50.708;22.412;2023-03-01T01:33:34;111.57;;;53.28;;
40867;SDS011;26586;50.708;22.412;2023-03-01T01:36:00;101.28;;;50.53;;
40867;SDS011;26586;50.708;22.412;2023-03-01T01:38:27;93.30;;;47.30;;
40867;SDS011;26586;50.708;22.412;2023-03-01T01:40:53;100.13;;;47.80;;
40867;SDS011;26586;50.708;22.412;2023-03-01T01:43:21;86.03;;;45.50;;
40867;SDS011;26586;50.708;22.412;2023-03-01T01:45:50;86.93;;;43.65;;
40867;SDS011;26586;50.708;22.412;2023-03-01T01:48:22;90.68;;;46.70;;
40867;SDS011;26586;50.708;22.412;2023-03-01T01:51:06;107.03;;;51.38;;
40867;SDS011;26586;50.708;22.412;2023-03-01T01:53:39;107.00;;;51.85;;
40867;SDS011;26586;50.708;22.412;2023-03-01T01:56:07;113.53;;;54.13;;
40867;SDS011;26586;50.708;22.412;2023-03-01T01:58:37;125.05;;;59.17;;
40867;SDS011;26586;50.708;22.412;2023-03-01T02:01:04;153.07;;;70.65;;
40867;SDS011;26586;50.708;22.412;2023-03-01T02:03:31;141.48;;;71.10;;
40867;SDS011;26586;50.708;22.412;2023-03-01T02:06:15;146.23;;;70.78;;
40867;SDS011;26586;50.708;22.412;2023-03-01T02:08:59;138.82;;;69.05;;
40867;SDS011;26586;50.708;22.412;2023-03-01T02:11:29;132.77;;;66.32;;
40867;SDS011;26586;50.708;22.412;2023-03-01T02:13:57;129.90;;;63.95;;
40867;SDS011;26586;50.708;22.412;2023-03-01T02:16:24;118.68;;;57.40;;
40867;SDS011;26586;50.708;22.412;2023-03-01T02:22:01;119.97;;;56.83;;
40867;SDS011;26586;50.708;22.412;2023-03-01T02:24:20;116.10;;;57.08;;
40867;SDS011;26586;50.708;22.412;2023-03-01T02:26:58;117.45;;;55.45;;
40867;SDS011;26586;50.708;22.412;2023-03-01T02:31:54;113.07;;;53.67;;
40867;SDS011;26586;50.708;22.412;2023-03-01T02:34:24;111.10;;;54.70;;
40867;SDS011;26586;50.708;22.412;2023-03-01T02:36:53;104.55;;;55.00;;
40867;SDS011;26586;50.708;22.412;2023-03-01T02:39:30;109.07;;;56.13;;
40867;SDS011;26586;50.708;22.412;2023-03-01T02:42:10;107.00;;;54.50;;
40867;SDS011;26586;50.708;22.412;2023-03-01T02:44:38;115.85;;;61.28;;
40867;SDS011;26586;50.708;22.412;2023-03-01T02:47:04;133.43;;;61.78;;
40867;SDS011;26586;50.708;22.412;2023-03-01T02:49:33;124.22;;;62.15;;
40867;SDS011;26586;50.708;22.412;2023-03-01T02:52:05;85.13;;;47.45;;
40867;SDS011;26586;50.708;22.412;2023-03-01T02:54:36;95.75;;;49.50;;
40867;SDS011;26586;50.708;22.412;2023-03-01T02:57:09;107.70;;;54.97;;
40867;SDS011;26586;50.708;22.412;2023-03-01T02:59:35;90.93;;;47.40;;
40867;SDS011;26586;50.708;22.412;2023-03-01T03:02:18;80.15;;;41.55;;
40867;SDS011;26586;50.708;22.412;2023-03-01T03:07:39;81.72;;;42.30;;
40867;SDS011;26586;50.708;22.412;2023-03-01T03:10:08;74.85;;;41.42;;
40867;SDS011;26586;50.708;22.412;2023-03-01T03:12:37;85.15;;;43.63;;
40867;SDS011;26586;50.708;22.412;2023-03-01T03:15:04;78.05;;;41.10;;
40867;SDS011;26586;50.708;22.412;2023-03-01T03:17:37;81.97;;;44.80;;
40867;SDS011;26586;50.708;22.412;2023-03-01T03:20:05;84.90;;;43.22;;
40867;SDS011;26586;50.708;22.412;2023-03-01T03:22:38;84.53;;;43.50;;
40867;SDS011;26586;50.708;22.412;2023-03-01T03:25:05;76.90;;;41.70;;
40867;SDS011;26586;50.708;22.412;2023-03-01T03:27:36;82.30;;;40.85;;
40867;SDS011;26586;50.708;22.412;2023-03-01T03:30:10;82.63;;;40.20;;
40867;SDS011;26586;50.708;22.412;2023-03-01T03:32:39;79.60;;;39.78;;
40867;SDS011;26586;50.708;22.412;2023-03-01T03:35:07;71.65;;;39.40;;
40867;SDS011;26586;50.708;22.412;2023-03-01T03:37:38;65.47;;;34.40;;
40867;SDS011;26586;50.708;22.412;2023-03-01T03:40:24;64.97;;;36.15;;
40867;SDS011;26586;50.708;22.412;2023-03-01T03:42:52;70.53;;;37.60;;
40867;SDS011;26586;50.708;22.412;2023-03-01T03:45:18;65.20;;;35.22;;
40867;SDS011;26586;50.708;22.412;2023-03-01T03:47:44;68.75;;;36.20;;
40867;SDS011;26586;50.708;22.412;2023-03-01T03:50:11;69.50;;;36.38;;
40867;SDS011;26586;50.708;22.412;2023-03-01T03:52:39;64.88;;;36.92;;
40867;SDS011;26586;50.708;22.412;2023-03-01T03:55:06;70.05;;;37.45;;
40867;SDS011;26586;50.708;22.412;2023-03-01T03:57:37;63.25;;;34.88;;
40867;SDS011;26586;50.708;22.412;2023-03-01T04:00:04;69.03;;;36.22;;
40867;SDS011;26586;50.708;22.412;2023-03-01T04:02:41;68.30;;;35.47;;
40867;SDS011;26586;50.708;22.412;2023-03-01T04:05:09;66.03;;;36.30;;
40867;SDS011;26586;50.708;22.412;2023-03-01T04:07:37;68.25;;;35.55;;
40867;SDS011;26586;50.708;22.412;2023-03-01T04:10:04;71.90;;;37.15;;
40867;SDS011;26586;50.708;22.412;2023-03-01T04:12:33;70.38;;;37.72;;
40867;SDS011;26586;50.708;22.412;2023-03-01T04:17:27;53.42;;;30.83;;
40867;SDS011;26586;50.708;22.412;2023-03-01T04:19:53;53.42;;;30.17;;
40867;SDS011;26586;50.708;22.412;2023-03-01T04:22:19;61.63;;;31.52;;
40867;SDS011;26586;50.708;22.412;2023-03-01T04:24:45;57.53;;;29.23;;
40867;SDS011;26586;50.708;22.412;2023-03-01T04:27:12;61.00;;;31.80;;
40867;SDS011;26586;50.708;22.412;2023-03-01T04:29:38;47.53;;;26.35;;
40867;SDS011;26586;50.708;22.412;2023-03-01T04:32:04;49.38;;;26.30;;
40867;SDS011;26586;50.708;22.412;2023-03-01T04:34:30;49.88;;;26.27;;
40867;SDS011;26586;50.708;22.412;2023-03-01T04:36:56;47.15;;;24.83;;
40867;SDS011;26586;50.708;22.412;2023-03-01T04:39:23;45.20;;;26.52;;
40867;SDS011;26586;50.708;22.412;2023-03-01T04:41:49;49.90;;;26.75;;
40867;SDS011;26586;50.708;22.412;2023-03-01T04:44:15;45.72;;;26.05;;
40867;SDS011;26586;50.708;22.412;2023-03-01T04:46:41;53.38;;;27.58;;
40867;SDS011;26586;50.708;22.412;2023-03-01T04:49:07;52.40;;;26.73;;
40867;SDS011;26586;50.708;22.412;2023-03-01T04:51:34;60.95;;;31.70;;
40867;SDS011;26586;50.708;22.412;2023-03-01T04:54:00;73.05;;;35.45;;
40867;SDS011;26586;50.708;22.412;2023-03-01T04:56:26;78.68;;;36.22;;
40867;SDS011;26586;50.708;22.412;2023-03-01T04:58:53;72.53;;;39.08;;
40867;SDS011;26586;50.708;22.412;2023-03-01T05:01:20;74.35;;;38.50;;
40867;SDS011;26586;50.708;22.412;2023-03-01T05:03:47;84.15;;;49.45;;
40867;SDS011;26586;50.708;22.412;2023-03-01T05:06:15;48.97;;;25.13;;
40867;SDS011;26586;50.708;22.412;2023-03-01T05:08:42;44.90;;;26.58;;
40867;SDS011;26586;50.708;22.412;2023-03-01T05:11:09;60.70;;;30.38;;
40867;SDS011;26586;50.708;22.412;2023-03-01T05:13:36;42.70;;;26.33;;
40867;SDS011;26586;50.708;22.412;2023-03-01T05:16:04;51.00;;;26.13;;
40867;SDS011;26586;50.708;22.412;2023-03-01T05:18:36;54.88;;;25.23;;
40867;SDS011;26586;50.708;22.412;2023-03-01T05:21:04;43.55;;;22.63;;
40867;SDS011;26586;50.708;22.412;2023-03-01T05:23:32;48.05;;;26.30;;
40867;SDS011;26586;50.708;22.412;2023-03-01T05:26:00;44.35;;;23.38;;
40867;SDS011;26586;50.708;22.412;2023-03-01T05:28:29;32.00;;;19.88;;
40867;SDS011;26586;50.708;22.412;2023-03-01T05:30:56;38.20;;;19.98;;
40867;SDS011;26586;50.708;22.412;2023-03-01T05:33:23;34.42;;;19.40;;
40867;SDS011;26586;50.708;22.412;2023-03-01T05:35:51;32.60;;;19.17;;
40867;SDS011;26586;50.708;22.412;2023-03-01T05:38:18;30.17;;;19.05;;
40867;SDS011;26586;50.708;22.412;2023-03-01T05:40:47;40.53;;;22.65;;
40867;SDS011;26586;50.708;22.412;2023-03-01T05:43:15;44.03;;;25.20;;
40867;SDS011;26586;50.708;22.412;2023-03-01T05:45:42;30.25;;;19.38;;
40867;SDS011;26586;50.708;22.412;2023-03-01T05:48:08;31.58;;;20.42;;
40867;SDS011;26586;50.708;22.412;2023-03-01T05:50:37;32.20;;;19.00;;
40867;SDS011;26586;50.708;22.412;2023-03-01T05:53:15;38.15;;;18.15;;
40867;SDS011;26586;50.708;22.412;2023-03-01T05:55:43;33.58;;;17.27;;
40867;SDS011;26586;50.708;22.412;2023-03-01T05:58:13;38.75;;;19.92;;
40867;SDS011;26586;50.708;22.412;2023-03-01T06:00:41;44.53;;;22.17;;
40867;SDS011;26586;50.708;22.412;2023-03-01T06:03:09;39.05;;;20.67;;
40867;SDS011;26586;50.708;22.412;2023-03-01T06:05:37;36.03;;;20.45;;
40867;SDS011;26586;50.708;22.412;2023-03-01T06:08:04;34.63;;;20.58;;
40867;SDS011;26586;50.708;22.412;2023-03-01T06:10:31;167.65;;;65.15;;
40867;SDS011;26586;50.708;22.412;2023-03-01T06:12:57;385.67;;;136.73;;
40867;SDS011;26586;50.708;22.412;2023-03-01T06:15:24;161.38;;;67.75;;
40867;SDS011;26586;50.708;22.412;2023-03-01T06:17:51;44.00;;;22.90;;
40867;SDS011;26586;50.708;22.412;2023-03-01T06:20:22;40.05;;;24.33;;
40867;SDS011;26586;50.708;22.412;2023-03-01T06:22:49;44.35;;;27.60;;
40867;SDS011;26586;50.708;22.412;2023-03-01T06:25:18;38.00;;;23.92;;
40867;SDS011;26586;50.708;22.412;2023-03-01T06:27:46;39.50;;;22.77;;
40867;SDS011;26586;50.708;22.412;2023-03-01T06:30:13;32.38;;;20.23;;
40867;SDS011;26586;50.708;22.412;2023-03-01T06:32:41;34.40;;;20.50;;
40867;SDS011;26586;50.708;22.412;2023-03-01T06:35:07;27.57;;;17.10;;
40867;SDS011;26586;50.708;22.412;2023-03-01T06:37:37;33.15;;;16.83;;
40867;SDS011;26586;50.708;22.412;2023-03-01T06:40:05;30.15;;;16.65;;
40867;SDS011;26586;50.708;22.412;2023-03-01T06:42:37;28.33;;;17.70;;
40867;SDS011;26586;50.708;22.412;2023-03-01T06:45:05;30.02;;;18.77;;
40867;SDS011;26586;50.708;22.412;2023-03-01T06:47:32;27.90;;;17.45;;
40867;SDS011;26586;50.708;22.412;2023-03-01T06:49:59;35.28;;;21.70;;
40867;SDS011;26586;50.708;22.412;2023-03-01T06:52:27;40.72;;;24.60;;
40867;SDS011;26586;50.708;22.412;2023-03-01T06:54:53;36.67;;;20.47;;
40867;SDS011;26586;50.708;22.412;2023-03-01T06:57:19;33.55;;;19.60;;
40867;SDS011;26586;50.708;22.412;2023-03-01T06:59:46;40.83;;;24.37;;
40867;SDS011;26586;50.708;22.412;2023-03-01T07:02:13;42.22;;;20.67;;
40867;SDS011;26586;50.708;22.412;2023-03-01T07:04:41;31.33;;;19.33;;
40867;SDS011;26586;50.708;22.412;2023-03-01T07:07:07;30.85;;;19.05;;
40867;SDS011;26586;50.708;22.412;2023-03-01T07:09:33;27.73;;;16.83;;
40867;SDS011;26586;50.708;22.412;2023-03-01T07:12:00;28.17;;;18.05;;
40867;SDS011;26586;50.708;22.412;2023-03-01T07:14:26;34.40;;;21.83;;
40867;SDS011;26586;50.708;22.412;2023-03-01T07:16:53;29.75;;;19.10;;
40867;SDS011;26586;50.708;22.412;2023-03-01T07:19:20;34.20;;;22.90;;
40867;SDS011;26586;50.708;22.412;2023-03-01T07:21:46;27.85;;;17.13;;
40867;SDS011;26586;50.708;22.412;2023-03-01T07:24:13;26.70;;;16.87;;
40867;SDS011;26586;50.708;22.412;2023-03-01T07:26:39;29.15;;;17.83;;
40867;SDS011;26586;50.708;22.412;2023-03-01T07:29:06;31.87;;;18.57;;
40867;SDS011;26586;50.708;22.412;2023-03-01T07:31:35;29.20;;;17.88;;
40867;SDS011;26586;50.708;22.412;2023-03-01T07:36:28;29.42;;;16.98;;
40867;SDS011;26586;50.708;22.412;2023-03-01T07:38:54;28.35;;;17.75;;
40867;SDS011;26586;50.708;22.412;2023-03-01T07:41:21;32.72;;;17.45;;
40867;SDS011;26586;50.708;22.412;2023-03-01T07:43:47;26.25;;;16.58;;
40867;SDS011;26586;50.708;22.412;2023-03-01T07:46:14;28.52;;;18.70;;
40867;SDS011;26586;50.708;22.412;2023-03-01T07:48:40;26.35;;;17.38;;
40867;SDS011;26586;50.708;22.412;2023-03-01T07:51:07;27.20;;;17.75;;
40867;SDS011;26586;50.708;22.412;2023-03-01T07:53:33;41.47;;;27.55;;
40867;SDS011;26586;50.708;22.412;2023-03-01T07:56:00;30.27;;;20.50;;
40867;SDS011;26586;50.708;22.412;2023-03-01T07:58:34;36.05;;;24.70;;
40867;SDS011;26586;50.708;22.412;2023-03-01T08:01:05;31.88;;;21.15;;
40867;SDS011;26586;50.708;22.412;2023-03-01T08:03:34;40.83;;;24.00;;
40867;SDS011;26586;50.708;22.412;2023-03-01T08:06:01;30.95;;;20.63;;
40867;SDS011;26586;50.708;22.412;2023-03-01T08:08:29;30.08;;;19.52;;
40867;SDS011;26586;50.708;22.412;2023-03-01T08:10:57;26.98;;;16.27;;
40867;SDS011;26586;50.708;22.412;2023-03-01T08:13:24;26.35;;;14.93;;
40867;SDS011;26586;50.708;22.412;2023-03-01T08:15:51;28.25;;;16.17;;
40867;SDS011;26586;50.708;22.412;2023-03-01T08:20:45;27.13;;;15.93;;
40867;SDS011;26586;50.708;22.412;2023-03-01T08:23:11;28.38;;;17.08;;
40867;SDS011;26586;50.708;22.412;2023-03-01T08:25:38;22.73;;;13.68;;
40867;SDS011;26586;50.708;22.412;2023-03-01T08:28:05;20.50;;;13.60;;
40867;SDS011;26586;50.708;22.412;2023-03-01T08:30:31;16.95;;;11.77;;
40867;SDS011;26586;50.708;22.412;2023-03-01T08:32:57;16.17;;;10.48;;
40867;SDS011;26586;50.708;22.412;2023-03-01T08:35:23;15.13;;;9.30;;
40867;SDS011;26586;50.708;22.412;2023-03-01T08:37:50;15.77;;;10.18;;
40867;SDS011;26586;50.708;22.412;2023-03-01T08:40:16;18.33;;;11.93;;
40867;SDS011;26586;50.708;22.412;2023-03-01T08:42:42;18.43;;;11.40;;
40867;SDS011;26586;50.708;22.412;2023-03-01T08:45:08;17.13;;;10.02;;
40867;SDS011;26586;50.708;22.412;2023-03-01T08:47:35;17.08;;;10.60;;
40867;SDS011;26586;50.708;22.412;2023-03-01T08:50:02;19.88;;;12.95;;
40867;SDS011;26586;50.708;22.412;2023-03-01T08:52:30;20.25;;;12.00;;
40867;SDS011;26586;50.708;22.412;2023-03-01T08:54:58;17.73;;;10.68;;
40867;SDS011;26586;50.708;22.412;2023-03-01T08:57:26;20.33;;;10.75;;
40867;SDS011;26586;50.708;22.412;2023-03-01T08:59:53;15.63;;;10.07;;
40867;SDS011;26586;50.708;22.412;2023-03-01T09:02:21;18.48;;;10.70;;
40867;SDS011;26586;50.708;22.412;2023-03-01T09:04:48;17.85;;;10.93;;
40867;SDS011;26586;50.708;22.412;2023-03-01T09:07:14;14.87;;;9.13;;
40867;SDS011;26586;50.708;22.412;2023-03-01T09:09:40;22.00;;;10.68;;
40867;SDS011;26586;50.708;22.412;2023-03-01T09:12:06;14.70;;;9.90;;
40867;SDS011;26586;50.708;22.412;2023-03-01T09:14:32;15.40;;;8.95;;
40867;SDS011;26586;50.708;22.412;2023-03-01T09:16:59;16.83;;;10.87;;
40867;SDS011;26586;50.708;22.412;2023-03-01T09:19:28;16.75;;;10.48;;
40867;SDS011;26586;50.708;22.412;2023-03-01T09:21:54;19.48;;;11.02;;
40867;SDS011;26586;50.708;22.412;2023-03-01T09:24:21;19.58;;;10.23;;
40867;SDS011;26586;50.708;22.412;2023-03-01T09:26:49;17.02;;;10.18;;
40867;SDS011;26586;50.708;22.412;2023-03-01T09:29:17;14.95;;;10.55;;
40867;SDS011;26586;50.708;22.412;2023-03-01T09:31:44;16.83;;;10.65;;
40867;SDS011;26586;50.708;22.412;2023-03-01T09:34:10;19.60;;;10.50;;
40867;SDS011;26586;50.708;22.412;2023-03-01T09:36:37;19.00;;;10.20;;
40867;SDS011;26586;50.708;22.412;2023-03-01T09:39:03;21.27;;;10.98;;
40867;SDS011;26586;50.708;22.412;2023-03-01T09:41:54;26.42;;;11.35;;
40867;SDS011;26586;50.708;22.412;2023-03-01T09:46:47;15.98;;;10.02;;
40867;SDS011;26586;50.708;22.412;2023-03-01T09:49:48;21.00;;;10.60;;
40867;SDS011;26586;50.708;22.412;2023-03-01T09:52:26;19.95;;;10.60;;
40867;SDS011;26586;50.708;22.412;2023-03-01T09:55:00;18.95;;;10.20;;
40867;SDS011;26586;50.708;22.412;2023-03-01T09:57:39;20.42;;;12.15;;
40867;SDS011;26586;50.708;22.412;2023-03-01T10:05:38;16.48;;;9.80;;
40867;SDS011;26586;50.708;22.412;2023-03-01T10:08:29;15.82;;;10.05;;
40867;SDS011;26586;50.708;22.412;2023-03-01T10:11:31;26.05;;;14.10;;
40867;SDS011;26586;50.708;22.412;2023-03-01T10:14:03;19.42;;;12.15;;
40867;SDS011;26586;50.708;22.412;2023-03-01T10:19:16;25.50;;;13.55;;
40867;SDS011;26586;50.708;22.412;2023-03-01T10:21:49;17.40;;;11.02;;
40867;SDS011;26586;50.708;22.412;2023-03-01T10:24:18;17.20;;;8.45;;
40867;SDS011;26586;50.708;22.412;2023-03-01T10:27:01;18.52;;;9.27;;
40867;SDS011;26586;50.708;22.412;2023-03-01T10:29:46;12.35;;;7.95;;
40867;SDS011;26586;50.708;22.412;2023-03-01T10:32:31;16.50;;;9.85;;
40867;SDS011;26586;50.708;22.412;2023-03-01T10:34:57;11.40;;;7.38;;
40867;SDS011;26586;50.708;22.412;2023-03-01T10:37:24;12.02;;;7.63;;
40867;SDS011;26586;50.708;22.412;2023-03-01T10:39:57;11.68;;;7.80;;
40867;SDS011;26586;50.708;22.412;2023-03-01T10:42:27;17.15;;;10.30;;
40867;SDS011;26586;50.708;22.412;2023-03-01T10:44:56;14.05;;;8.52;;
40867;SDS011;26586;50.708;22.412;2023-03-01T10:47:24;14.52;;;8.00;;
40867;SDS011;26586;50.708;22.412;2023-03-01T10:52:33;12.45;;;7.40;;
40867;SDS011;26586;50.708;22.412;2023-03-01T10:58:18;25.35;;;13.10;;
40867;SDS011;26586;50.708;22.412;2023-03-01T11:00:48;40.63;;;22.55;;
40867;SDS011;26586;50.708;22.412;2023-03-01T11:03:21;23.88;;;14.75;;
40867;SDS011;26586;50.708;22.412;2023-03-01T11:05:57;21.02;;;11.80;;
40867;SDS011;26586;50.708;22.412;2023-03-01T11:14:01;15.95;;;9.40;;
40867;SDS011;26586;50.708;22.412;2023-03-01T11:16:38;14.73;;;8.82;;
40867;SDS011;26586;50.708;22.412;2023-03-01T11:24:16;11.23;;;7.55;;
40867;SDS011;26586;50.708;22.412;2023-03-01T11:26:45;11.68;;;7.47;;
40867;SDS011;26586;50.708;22.412;2023-03-01T11:29:26;10.80;;;6.95;;
40867;SDS011;26586;50.708;22.412;2023-03-01T11:32:01;12.32;;;7.68;;
40867;SDS011;26586;50.708;22.412;2023-03-01T11:34:36;11.70;;;7.82;;
40867;SDS011;26586;50.708;22.412;2023-03-01T11:40:25;23.27;;;12.30;;
40867;SDS011;26586;50.708;22.412;2023-03-01T11:43:06;12.90;;;7.75;;
40867;SDS011;26586;50.708;22.412;2023-03-01T12:08:02;10.98;;;6.78;;
40867;SDS011;26586;50.708;22.412;2023-03-01T12:19:50;12.35;;;5.57;;
40867;SDS011;26586;50.708;22.412;2023-03-01T12:25:24;10.30;;;6.05;;
40867;SDS011;26586;50.708;22.412;2023-03-01T12:33:57;13.20;;;7.72;;
40867;SDS011;26586;50.708;22.412;2023-03-01T12:44:35;24.60;;;8.02;;
40867;SDS011;26586;50.708;22.412;2023-03-01T12:50:02;9.23;;;5.85;;
40867;SDS011;26586;50.708;22.412;2023-03-01T12:52:35;11.95;;;7.45;;
40867;SDS011;26586;50.708;22.412;2023-03-01T12:55:42;9.75;;;5.78;;
40867;SDS011;26586;50.708;22.412;2023-03-01T12:58:27;9.43;;;5.20;;
40867;SDS011;26586;50.708;22.412;2023-03-01T13:04:07;13.82;;;7.25;;
40867;SDS011;26586;50.708;22.412;2023-03-01T13:11:57;12.10;;;7.50;;
40867;SDS011;26586;50.708;22.412;2023-03-01T13:16:50;12.50;;;8.38;;
40867;SDS011;26586;50.708;22.412;2023-03-01T13:19:18;15.02;;;7.90;;
40867;SDS011;26586;50.708;22.412;2023-03-01T13:21:50;11.25;;;7.15;;
40867;SDS011;26586;50.708;22.412;2023-03-01T13:32:33;15.68;;;9.85;;
40867;SDS011;26586;50.708;22.412;2023-03-01T13:35:40;13.90;;;8.77;;
40867;SDS011;26586;50.708;22.412;2023-03-01T13:41:16;16.30;;;9.85;;
40867;SDS011;26586;50.708;22.412;2023-03-01T13:46:48;12.45;;;7.05;;
40867;SDS011;26586;50.708;22.412;2023-03-01T13:49:21;16.77;;;7.97;;
40867;SDS011;26586;50.708;22.412;2023-03-01T13:51:52;12.18;;;7.55;;
40867;SDS011;26586;50.708;22.412;2023-03-01T13:54:24;12.48;;;7.13;;
40867;SDS011;26586;50.708;22.412;2023-03-01T13:56:56;10.85;;;7.00;;
40867;SDS011;26586;50.708;22.412;2023-03-01T13:59:24;16.13;;;9.75;;
40867;SDS011;26586;50.708;22.412;2023-03-01T14:01:53;14.45;;;8.98;;
40867;SDS011;26586;50.708;22.412;2023-03-01T14:06:52;13.18;;;8.27;;
40867;SDS011;26586;50.708;22.412;2023-03-01T14:09:34;27.23;;;14.40;;
40867;SDS011;26586;50.708;22.412;2023-03-01T14:12:15;11.80;;;7.20;;
40867;SDS011;26586;50.708;22.412;2023-03-01T14:15:31;14.48;;;8.20;;
40867;SDS011;26586;50.708;22.412;2023-03-01T14:17:58;10.10;;;5.78;;
40867;SDS011;26586;50.708;22.412;2023-03-01T14:20:27;10.73;;;6.70;;
40867;SDS011;26586;50.708;22.412;2023-03-01T14:22:57;11.70;;;7.60;;
40867;SDS011;26586;50.708;22.412;2023-03-01T14:28:04;12.65;;;6.00;;
40867;SDS011;26586;50.708;22.412;2023-03-01T14:30:35;12.63;;;7.82;;
40867;SDS011;26586;50.708;22.412;2023-03-01T14:33:05;17.00;;;8.30;;
40867;SDS011;26586;50.708;22.412;2023-03-01T14:35:51;17.67;;;9.98;;
40867;SDS011;26586;50.708;22.412;2023-03-01T14:38:28;14.60;;;8.88;;
40867;SDS011;26586;50.708;22.412;2023-03-01T14:40:56;16.00;;;9.63;;
40867;SDS011;26586;50.708;22.412;2023-03-01T14:43:25;14.05;;;9.57;;
40867;SDS011;26586;50.708;22.412;2023-03-01T14:45:52;40.95;;;13.90;;
40867;SDS011;26586;50.708;22.412;2023-03-01T14:48:18;16.48;;;8.80;;
40867;SDS011;26586;50.708;22.412;2023-03-01T14:50:45;13.13;;;8.30;;
40867;SDS011;26586;50.708;22.412;2023-03-01T14:53:18;17.33;;;9.80;;
40867;SDS011;26586;50.708;22.412;2023-03-01T14:55:55;11.30;;;8.40;;
40867;SDS011;26586;50.708;22.412;2023-03-01T14:58:25;12.05;;;7.65;;
40867;SDS011;26586;50.708;22.412;2023-03-01T15:00:53;13.13;;;7.72;;
40867;SDS011;26586;50.708;22.412;2023-03-01T15:03:30;9.85;;;6.05;;
40867;SDS011;26586;50.708;22.412;2023-03-01T15:06:07;11.13;;;6.03;;
40867;SDS011;26586;50.708;22.412;2023-03-01T15:08:33;11.60;;;7.82;;
40867;SDS011;26586;50.708;22.412;2023-03-01T15:11:03;18.42;;;9.40;;
40867;SDS011;26586;50.708;22.412;2023-03-01T15:13:32;14.10;;;7.10;;
40867;SDS011;26586;50.708;22.412;2023-03-01T15:16:04;16.60;;;8.52;;
40867;SDS011;26586;50.708;22.412;2023-03-01T15:18:36;13.63;;;7.78;;
40867;SDS011;26586;50.708;22.412;2023-03-01T15:21:13;15.35;;;9.38;;
40867;SDS011;26586;50.708;22.412;2023-03-01T15:23:47;27.08;;;17.83;;
40867;SDS011;26586;50.708;22.412;2023-03-01T15:29:33;15.60;;;8.60;;
40867;SDS011;26586;50.708;22.412;2023-03-01T15:32:20;26.75;;;17.30;;
40867;SDS011;26586;50.708;22.412;2023-03-01T15:34:49;28.55;;;17.38;;
40867;SDS011;26586;50.708;22.412;2023-03-01T15:40:01;68.20;;;43.63;;
40867;SDS011;26586;50.708;22.412;2023-03-01T15:45:09;35.13;;;20.67;;
40867;SDS011;26586;50.708;22.412;2023-03-01T15:47:35;53.70;;;30.50;;
40867;SDS011;26586;50.708;22.412;2023-03-01T15:50:04;113.10;;;54.15;;
40867;SDS011;26586;50.708;22.412;2023-03-01T15:52:33;228.45;;;106.05;;
40867;SDS011;26586;50.708;22.412;2023-03-01T15:57:45;159.32;;;76.78;;
40867;SDS011;26586;50.708;22.412;2023-03-01T16:00:14;125.80;;;61.88;;
40867;SDS011;26586;50.708;22.412;2023-03-01T16:02:41;143.52;;;68.57;;
40867;SDS011;26586;50.708;22.412;2023-03-01T16:07:40;48.42;;;26.85;;
40867;SDS011;26586;50.708;22.412;2023-03-01T16:10:06;55.47;;;31.55;;
40867;SDS011;26586;50.708;22.412;2023-03-01T16:12:33;82.30;;;42.28;;
40867;SDS011;26586;50.708;22.412;2023-03-01T16:14:59;74.75;;;40.95;;
40867;SDS011;26586;50.708;22.412;2023-03-01T16:17:25;73.73;;;43.70;;
40867;SDS011;26586;50.708;22.412;2023-03-01T16:19:51;49.53;;;32.47;;
40867;SDS011;26586;50.708;22.412;2023-03-01T16:22:18;40.20;;;24.00;;
40867;SDS011;26586;50.708;22.412;2023-03-01T16:24:50;37.97;;;23.90;;
40867;SDS011;26586;50.708;22.412;2023-03-01T16:27:16;40.25;;;26.83;;
40867;SDS011;26586;50.708;22.412;2023-03-01T16:29:42;48.08;;;32.42;;
40867;SDS011;26586;50.708;22.412;2023-03-01T16:32:08;42.00;;;25.07;;
40867;SDS011;26586;50.708;22.412;2023-03-01T16:34:35;54.30;;;30.00;;
40867;SDS011;26586;50.708;22.412;2023-03-01T16:37:06;35.50;;;24.58;;
40867;SDS011;26586;50.708;22.412;2023-03-01T16:39:37;77.65;;;33.88;;
40867;SDS011;26586;50.708;22.412;2023-03-01T16:42:04;116.68;;;51.47;;
40867;SDS011;26586;50.708;22.412;2023-03-01T16:44:30;141.60;;;70.40;;
40867;SDS011;26586;50.708;22.412;2023-03-01T16:46:56;187.10;;;97.50;;
40867;SDS011;26586;50.708;22.412;2023-03-01T16:49:22;194.98;;;100.20;;